sensor_id;sensor_type;location;lat;lon;timestamp;temperature;humidity
6822;DHT22;3449;48.728;8.968;2023-03-16T00:00:50;-0.50;99.90
6822;DHT22;3449;48.728;8.968;2023-03-16T00:03:19;-0.50;99.90
6822;DHT22;3449;48.728;8.968;2023-03-16T00:05:46;-0.50;99.90
6822;DHT22;3449;48.728;8.968;2023-03-16T00:08:13;-0.50;99.90
6822;DHT22;3449;48.728;8.968;2023-03-16T00:10:40;-0.50;99.90
6822;DHT22;3449;48.728;8.968;2023-03-16T00:13:11;-0.50;99.90
6822;DHT22;3449;48.728;8.968;2023-03-16T00:15:38;-0.50;99.90
6822;DHT22;3449;48.728;8.968;2023-03-16T00:18:05;-0.50;99.90
6822;DHT22;3449;48.728;8.968;2023-03-16T00:20:33;-0.50;99.90
6822;DHT22;3449;48.728;8.968;2023-03-16T00:23:00;-0.50;99.90
6822;DHT22;3449;48.728;8.968;2023-03-16T00:25:27;-0.50;99.90
6822;DHT22;3449;48.728;8.968;2023-03-16T00:27:54;-0.50;99.90
6822;DHT22;3449;48.728;8.968;2023-03-16T00:30:21;-0.50;99.90
6822;DHT22;3449;48.728;8.968;2023-03-16T00:32:48;-0.40;99.90
6822;DHT22;3449;48.728;8.968;2023-03-16T00:35:18;-0.50;99.90
6822;DHT22;3449;48.728;8.968;2023-03-16T00:37:47;-0.50;99.90
6822;DHT22;3449;48.728;8.968;2023-03-16T00:40:14;-0.50;99.90
6822;DHT22;3449;48.728;8.968;2023-03-16T00:42:41;-0.50;99.90
6822;DHT22;3449;48.728;8.968;2023-03-16T00:45:09;-0.50;99.90
6822;DHT22;3449;48.728;8.968;2023-03-16T00:47:36;-0.50;99.90
6822;DHT22;3449;48.728;8.968;2023-03-16T00:50:03;-0.50;99.90
6822;DHT22;3449;48.728;8.968;2023-03-16T00:52:30;-0.50;99.90
6822;DHT22;3449;48.728;8.968;2023-03-16T00:55:01;-0.50;99.90
6822;DHT22;3449;48.728;8.968;2023-03-16T00:57:29;-0.50;99.90
6822;DHT22;3449;48.728;8.968;2023-03-16T00:59:56;-0.50;99.90
6822;DHT22;3449;48.728;8.968;2023-03-16T01:02:23;-0.50;99.90
6822;DHT22;3449;48.728;8.968;2023-03-16T01:04:51;-0.50;99.90
6822;DHT22;3449;48.728;8.968;2023-03-16T01:07:19;-0.40;99.90
6822;DHT22;3449;48.728;8.968;2023-03-16T01:09:46;-0.50;99.90
6822;DHT22;3449;48.728;8.968;2023-03-16T01:12:16;-0.60;99.90
6822;DHT22;3449;48.728;8.968;2023-03-16T01:14:44;-0.60;99.90
6822;DHT22;3449;48.728;8.968;2023-03-16T01:17:12;-0.60;99.90
6822;DHT22;3449;48.728;8.968;2023-03-16T01:19:40;-0.70;99.90
6822;DHT22;3449;48.728;8.968;2023-03-16T01:22:08;-0.70;99.90
6822;DHT22;3449;48.728;8.968;2023-03-16T01:24:36;-0.80;99.90
6822;DHT22;3449;48.728;8.968;2023-03-16T01:27:04;-0.80;99.90
6822;DHT22;3449;48.728;8.968;2023-03-16T01:29:33;-0.90;99.90
6822;DHT22;3449;48.728;8.968;2023-03-16T01:32:01;-0.90;99.90
6822;DHT22;3449;48.728;8.968;2023-03-16T01:34:28;-0.90;99.90
6822;DHT22;3449;48.728;8.968;2023-03-16T01:36:56;-0.90;99.90
6822;DHT22;3449;48.728;8.968;2023-03-16T01:39:23;-1.00;99.90
6822;DHT22;3449;48.728;8.968;2023-03-16T01:41:50;-1.00;99.90
6822;DHT22;3449;48.728;8.968;2023-03-16T01:44:20;-1.00;99.90
6822;DHT22;3449;48.728;8.968;2023-03-16T01:46:50;-1.00;99.90
6822;DHT22;3449;48.728;8.968;2023-03-16T01:49:18;-1.00;99.90
6822;DHT22;3449;48.728;8.968;2023-03-16T01:51:51;-1.10;99.90
6822;DHT22;3449;48.728;8.968;2023-03-16T01:54:22;-1.10;99.90
6822;DHT22;3449;48.728;8.968;2023-03-16T01:56:56;-1.10;99.90
6822;DHT22;3449;48.728;8.968;2023-03-16T01:59:28;-1.10;99.90
6822;DHT22;3449;48.728;8.968;2023-03-16T02:01:58;-1.10;99.90
6822;DHT22;3449;48.728;8.968;2023-03-16T02:04:35;-1.10;99.90
6822;DHT22;3449;48.728;8.968;2023-03-16T02:07:05;-1.10;99.90
6822;DHT22;3449;48.728;8.968;2023-03-16T02:09:34;-1.10;99.90
6822;DHT22;3449;48.728;8.968;2023-03-16T02:12:03;-1.10;99.90
6822;DHT22;3449;48.728;8.968;2023-03-16T02:14:30;-1.10;99.90
6822;DHT22;3449;48.728;8.968;2023-03-16T02:16:58;-1.10;99.90
6822;DHT22;3449;48.728;8.968;2023-03-16T02:19:41;-1.20;99.90
6822;DHT22;3449;48.728;8.968;2023-03-16T02:22:09;-1.10;99.90
6822;DHT22;3449;48.728;8.968;2023-03-16T02:24:38;-1.20;99.90
6822;DHT22;3449;48.728;8.968;2023-03-16T02:27:07;-1.20;99.90
6822;DHT22;3449;48.728;8.968;2023-03-16T02:29:56;-1.20;99.90
6822;DHT22;3449;48.728;8.968;2023-03-16T02:32:27;-1.30;99.90
6822;DHT22;3449;48.728;8.968;2023-03-16T02:34:55;-1.30;99.90
6822;DHT22;3449;48.728;8.968;2023-03-16T02:37:22;-1.20;99.90
6822;DHT22;3449;48.728;8.968;2023-03-16T02:39:49;-1.20;99.90
6822;DHT22;3449;48.728;8.968;2023-03-16T02:42:18;-1.20;99.90
6822;DHT22;3449;48.728;8.968;2023-03-16T02:44:50;-1.20;99.90
6822;DHT22;3449;48.728;8.968;2023-03-16T02:47:23;-1.20;99.90
6822;DHT22;3449;48.728;8.968;2023-03-16T02:49:52;-1.20;99.90
6822;DHT22;3449;48.728;8.968;2023-03-16T02:52:19;-1.20;99.90
6822;DHT22;3449;48.728;8.968;2023-03-16T02:54:46;-1.20;99.90
6822;DHT22;3449;48.728;8.968;2023-03-16T02:57:13;-1.20;99.90
6822;DHT22;3449;48.728;8.968;2023-03-16T02:59:40;-1.20;99.90
6822;DHT22;3449;48.728;8.968;2023-03-16T03:02:08;-1.20;99.90
6822;DHT22;3449;48.728;8.968;2023-03-16T03:04:35;-1.20;99.90
6822;DHT22;3449;48.728;8.968;2023-03-16T03:07:02;-1.30;99.90
6822;DHT22;3449;48.728;8.968;2023-03-16T03:09:30;-1.30;99.90
6822;DHT22;3449;48.728;8.968;2023-03-16T03:11:58;-1.30;99.90
6822;DHT22;3449;48.728;8.968;2023-03-16T03:14:25;-1.30;99.90
6822;DHT22;3449;48.728;8.968;2023-03-16T03:16:53;-1.30;99.90
6822;DHT22;3449;48.728;8.968;2023-03-16T03:19:22;-1.30;99.90
6822;DHT22;3449;48.728;8.968;2023-03-16T03:21:49;-1.30;99.90
6822;DHT22;3449;48.728;8.968;2023-03-16T03:24:17;-1.30;99.90
6822;DHT22;3449;48.728;8.968;2023-03-16T03:26:44;-1.40;99.90
6822;DHT22;3449;48.728;8.968;2023-03-16T03:29:11;-1.40;99.90
6822;DHT22;3449;48.728;8.968;2023-03-16T03:31:38;-1.30;99.90
6822;DHT22;3449;48.728;8.968;2023-03-16T03:34:05;-1.30;99.90
6822;DHT22;3449;48.728;8.968;2023-03-16T03:36:33;-1.30;99.90
6822;DHT22;3449;48.728;8.968;2023-03-16T03:39:00;-1.30;99.90
6822;DHT22;3449;48.728;8.968;2023-03-16T03:41:30;-1.30;99.90
6822;DHT22;3449;48.728;8.968;2023-03-16T03:43:58;-1.30;99.90
6822;DHT22;3449;48.728;8.968;2023-03-16T03:46:25;-1.30;99.90
6822;DHT22;3449;48.728;8.968;2023-03-16T03:48:52;-1.30;99.90
6822;DHT22;3449;48.728;8.968;2023-03-16T03:51:19;-1.30;99.90
6822;DHT22;3449;48.728;8.968;2023-03-16T03:53:47;-1.30;99.90
6822;DHT22;3449;48.728;8.968;2023-03-16T03:56:14;-1.30;99.90
6822;DHT22;3449;48.728;8.968;2023-03-16T03:58:41;-1.30;99.90
6822;DHT22;3449;48.728;8.968;2023-03-16T04:01:08;-1.30;99.90
6822;DHT22;3449;48.728;8.968;2023-03-16T04:03:35;-1.40;99.90
6822;DHT22;3449;48.728;8.968;2023-03-16T04:06:02;-1.40;99.90
6822;DHT22;3449;48.728;8.968;2023-03-16T04:08:28;-1.40;99.90
6822;DHT22;3449;48.728;8.968;2023-03-16T04:10:57;-1.40;99.90
6822;DHT22;3449;48.728;8.968;2023-03-16T04:13:24;-1.40;99.90
6822;DHT22;3449;48.728;8.968;2023-03-16T04:15:55;-1.40;99.90
6822;DHT22;3449;48.728;8.968;2023-03-16T04:18:22;-1.50;99.90
6822;DHT22;3449;48.728;8.968;2023-03-16T04:20:49;-1.50;99.90
6822;DHT22;3449;48.728;8.968;2023-03-16T04:23:17;-1.50;99.90
6822;DHT22;3449;48.728;8.968;2023-03-16T04:25:44;-1.50;99.90
6822;DHT22;3449;48.728;8.968;2023-03-16T04:28:12;-1.50;99.90
6822;DHT22;3449;48.728;8.968;2023-03-16T04:30:42;-1.60;99.90
6822;DHT22;3449;48.728;8.968;2023-03-16T04:33:09;-1.60;99.90
6822;DHT22;3449;48.728;8.968;2023-03-16T04:35:36;-1.60;99.90
6822;DHT22;3449;48.728;8.968;2023-03-16T04:38:03;-1.60;99.90
6822;DHT22;3449;48.728;8.968;2023-03-16T04:40:29;-1.60;99.90
6822;DHT22;3449;48.728;8.968;2023-03-16T04:42:56;-1.60;99.90
6822;DHT22;3449;48.728;8.968;2023-03-16T04:45:25;-1.60;99.90
6822;DHT22;3449;48.728;8.968;2023-03-16T04:47:51;-1.60;99.90
6822;DHT22;3449;48.728;8.968;2023-03-16T04:50:18;-1.60;99.90
6822;DHT22;3449;48.728;8.968;2023-03-16T04:52:45;-1.60;99.90
6822;DHT22;3449;48.728;8.968;2023-03-16T04:55:12;-1.70;99.90
6822;DHT22;3449;48.728;8.968;2023-03-16T04:57:39;-1.70;99.90
6822;DHT22;3449;48.728;8.968;2023-03-16T05:00:07;-1.60;99.90
6822;DHT22;3449;48.728;8.968;2023-03-16T05:02:44;-1.70;99.90
6822;DHT22;3449;48.728;8.968;2023-03-16T05:05:11;-1.70;99.90
6822;DHT22;3449;48.728;8.968;2023-03-16T05:07:39;-1.70;99.90
6822;DHT22;3449;48.728;8.968;2023-03-16T05:10:08;-1.70;99.90
6822;DHT22;3449;48.728;8.968;2023-03-16T05:12:36;-1.70;99.90
6822;DHT22;3449;48.728;8.968;2023-03-16T05:15:03;-1.70;99.90
6822;DHT22;3449;48.728;8.968;2023-03-16T05:17:30;-1.70;99.90
6822;DHT22;3449;48.728;8.968;2023-03-16T05:19:59;-1.80;99.90
6822;DHT22;3449;48.728;8.968;2023-03-16T05:22:26;-1.70;99.90
6822;DHT22;3449;48.728;8.968;2023-03-16T05:24:53;-1.80;99.90
6822;DHT22;3449;48.728;8.968;2023-03-16T05:27:20;-1.80;99.90
6822;DHT22;3449;48.728;8.968;2023-03-16T05:29:46;-1.80;99.90
6822;DHT22;3449;48.728;8.968;2023-03-16T05:32:13;-1.80;99.90
6822;DHT22;3449;48.728;8.968;2023-03-16T05:34:41;-1.80;99.90
6822;DHT22;3449;48.728;8.968;2023-03-16T05:37:10;-1.80;99.90
6822;DHT22;3449;48.728;8.968;2023-03-16T05:39:37;-1.90;99.90
6822;DHT22;3449;48.728;8.968;2023-03-16T05:42:04;-1.80;99.90
6822;DHT22;3449;48.728;8.968;2023-03-16T05:44:31;-1.90;99.90
6822;DHT22;3449;48.728;8.968;2023-03-16T05:46:59;-1.90;99.90
6822;DHT22;3449;48.728;8.968;2023-03-16T05:49:26;-2.00;99.90
6822;DHT22;3449;48.728;8.968;2023-03-16T05:51:53;-1.90;99.90
6822;DHT22;3449;48.728;8.968;2023-03-16T05:54:22;-2.00;99.90
6822;DHT22;3449;48.728;8.968;2023-03-16T05:56:49;-2.00;99.90
6822;DHT22;3449;48.728;8.968;2023-03-16T05:59:16;-1.90;99.90
6822;DHT22;3449;48.728;8.968;2023-03-16T06:01:43;-2.00;99.90
6822;DHT22;3449;48.728;8.968;2023-03-16T06:04:11;-2.00;99.90
6822;DHT22;3449;48.728;8.968;2023-03-16T06:06:38;-2.00;99.90
6822;DHT22;3449;48.728;8.968;2023-03-16T06:09:05;-2.00;99.90
6822;DHT22;3449;48.728;8.968;2023-03-16T06:11:33;-2.00;99.90
6822;DHT22;3449;48.728;8.968;2023-03-16T06:14:00;-2.00;99.90
6822;DHT22;3449;48.728;8.968;2023-03-16T06:16:27;-2.00;99.90
6822;DHT22;3449;48.728;8.968;2023-03-16T06:18:54;-1.90;99.90
6822;DHT22;3449;48.728;8.968;2023-03-16T06:21:22;-1.90;99.90
6822;DHT22;3449;48.728;8.968;2023-03-16T06:23:49;-1.80;99.90
6822;DHT22;3449;48.728;8.968;2023-03-16T06:26:16;-1.70;99.90
6822;DHT22;3449;48.728;8.968;2023-03-16T06:28:44;-1.70;99.90
6822;DHT22;3449;48.728;8.968;2023-03-16T06:31:11;-1.70;99.90
6822;DHT22;3449;48.728;8.968;2023-03-16T06:33:38;-1.60;99.90
6822;DHT22;3449;48.728;8.968;2023-03-16T06:36:06;-1.50;99.90
6822;DHT22;3449;48.728;8.968;2023-03-16T06:38:36;-1.40;99.90
6822;DHT22;3449;48.728;8.968;2023-03-16T06:41:03;-1.30;99.90
6822;DHT22;3449;48.728;8.968;2023-03-16T06:43:30;-1.10;99.90
6822;DHT22;3449;48.728;8.968;2023-03-16T06:45:59;-0.90;99.90
6822;DHT22;3449;48.728;8.968;2023-03-16T06:48:26;-0.80;99.90
6822;DHT22;3449;48.728;8.968;2023-03-16T06:50:53;-0.50;99.90
6822;DHT22;3449;48.728;8.968;2023-03-16T06:53:20;-0.50;99.90
6822;DHT22;3449;48.728;8.968;2023-03-16T06:55:47;-0.30;99.90
6822;DHT22;3449;48.728;8.968;2023-03-16T06:58:14;-0.10;99.90
6822;DHT22;3449;48.728;8.968;2023-03-16T07:00:41;0.00;99.90
6822;DHT22;3449;48.728;8.968;2023-03-16T07:03:09;0.20;99.90
6822;DHT22;3449;48.728;8.968;2023-03-16T07:05:36;0.40;99.90
6822;DHT22;3449;48.728;8.968;2023-03-16T07:08:03;0.50;99.90
6822;DHT22;3449;48.728;8.968;2023-03-16T07:10:30;0.60;99.90
6822;DHT22;3449;48.728;8.968;2023-03-16T07:12:57;0.70;99.90
6822;DHT22;3449;48.728;8.968;2023-03-16T07:15:24;0.90;99.90
6822;DHT22;3449;48.728;8.968;2023-03-16T07:17:52;1.10;99.90
6822;DHT22;3449;48.728;8.968;2023-03-16T07:20:20;1.30;99.90
6822;DHT22;3449;48.728;8.968;2023-03-16T07:22:48;1.30;99.90
6822;DHT22;3449;48.728;8.968;2023-03-16T07:25:14;1.50;99.90
6822;DHT22;3449;48.728;8.968;2023-03-16T07:27:41;1.80;99.90
6822;DHT22;3449;48.728;8.968;2023-03-16T07:30:12;1.90;99.90
6822;DHT22;3449;48.728;8.968;2023-03-16T07:32:39;1.90;99.90
6822;DHT22;3449;48.728;8.968;2023-03-16T07:35:07;1.90;99.90
6822;DHT22;3449;48.728;8.968;2023-03-16T07:37:35;2.00;99.90
6822;DHT22;3449;48.728;8.968;2023-03-16T07:40:03;2.10;99.90
6822;DHT22;3449;48.728;8.968;2023-03-16T07:42:33;2.40;99.90
6822;DHT22;3449;48.728;8.968;2023-03-16T07:45:00;2.50;99.90
6822;DHT22;3449;48.728;8.968;2023-03-16T07:47:27;2.70;99.90
6822;DHT22;3449;48.728;8.968;2023-03-16T07:49:55;2.80;99.90
6822;DHT22;3449;48.728;8.968;2023-03-16T07:52:22;2.90;99.90
6822;DHT22;3449;48.728;8.968;2023-03-16T07:54:50;2.90;99.90
6822;DHT22;3449;48.728;8.968;2023-03-16T07:57:17;2.90;99.90
6822;DHT22;3449;48.728;8.968;2023-03-16T07:59:44;3.00;99.90
6822;DHT22;3449;48.728;8.968;2023-03-16T08:02:12;3.00;99.90
6822;DHT22;3449;48.728;8.968;2023-03-16T08:04:39;2.90;99.90
6822;DHT22;3449;48.728;8.968;2023-03-16T08:07:07;3.20;99.90
6822;DHT22;3449;48.728;8.968;2023-03-16T08:09:34;3.40;99.90
6822;DHT22;3449;48.728;8.968;2023-03-16T08:12:03;3.60;99.90
6822;DHT22;3449;48.728;8.968;2023-03-16T08:14:31;3.40;99.90
6822;DHT22;3449;48.728;8.968;2023-03-16T08:16:59;3.60;99.90
6822;DHT22;3449;48.728;8.968;2023-03-16T08:19:26;3.80;99.90
6822;DHT22;3449;48.728;8.968;2023-03-16T08:21:53;3.70;99.90
6822;DHT22;3449;48.728;8.968;2023-03-16T08:24:21;3.80;99.90
6822;DHT22;3449;48.728;8.968;2023-03-16T08:26:48;4.00;99.90
6822;DHT22;3449;48.728;8.968;2023-03-16T08:29:16;4.20;99.90
6822;DHT22;3449;48.728;8.968;2023-03-16T08:31:43;4.70;99.90
6822;DHT22;3449;48.728;8.968;2023-03-16T08:34:11;5.00;99.90
6822;DHT22;3449;48.728;8.968;2023-03-16T08:36:38;5.20;99.90
6822;DHT22;3449;48.728;8.968;2023-03-16T08:39:04;5.50;99.90
6822;DHT22;3449;48.728;8.968;2023-03-16T08:41:31;5.70;99.90
6822;DHT22;3449;48.728;8.968;2023-03-16T08:43:59;5.40;99.90
6822;DHT22;3449;48.728;8.968;2023-03-16T08:46:27;5.60;99.90
6822;DHT22;3449;48.728;8.968;2023-03-16T08:48:55;5.80;99.90
6822;DHT22;3449;48.728;8.968;2023-03-16T08:51:22;5.90;99.90
6822;DHT22;3449;48.728;8.968;2023-03-16T08:53:49;6.10;99.90
6822;DHT22;3449;48.728;8.968;2023-03-16T08:56:16;6.20;99.90
6822;DHT22;3449;48.728;8.968;2023-03-16T08:58:44;6.20;99.90
6822;DHT22;3449;48.728;8.968;2023-03-16T09:01:12;6.30;99.90
6822;DHT22;3449;48.728;8.968;2023-03-16T09:03:41;6.30;99.90
6822;DHT22;3449;48.728;8.968;2023-03-16T09:06:11;6.50;99.90
6822;DHT22;3449;48.728;8.968;2023-03-16T09:08:39;6.70;99.90
6822;DHT22;3449;48.728;8.968;2023-03-16T09:11:08;6.80;99.90
6822;DHT22;3449;48.728;8.968;2023-03-16T09:13:35;7.00;99.90
6822;DHT22;3449;48.728;8.968;2023-03-16T09:16:03;7.00;99.90
6822;DHT22;3449;48.728;8.968;2023-03-16T09:18:30;7.20;99.90
6822;DHT22;3449;48.728;8.968;2023-03-16T09:20:59;7.40;99.90
6822;DHT22;3449;48.728;8.968;2023-03-16T09:23:29;7.40;99.90
6822;DHT22;3449;48.728;8.968;2023-03-16T09:25:57;7.50;99.90
6822;DHT22;3449;48.728;8.968;2023-03-16T09:28:24;7.30;99.90
6822;DHT22;3449;48.728;8.968;2023-03-16T09:30:51;7.50;99.90
6822;DHT22;3449;48.728;8.968;2023-03-16T09:33:19;7.70;99.90
6822;DHT22;3449;48.728;8.968;2023-03-16T09:35:46;7.90;99.90
6822;DHT22;3449;48.728;8.968;2023-03-16T09:38:15;8.00;99.90
6822;DHT22;3449;48.728;8.968;2023-03-16T09:40:43;8.30;99.90
6822;DHT22;3449;48.728;8.968;2023-03-16T09:43:35;8.00;99.90
6822;DHT22;3449;48.728;8.968;2023-03-16T09:46:07;8.00;99.90
6822;DHT22;3449;48.728;8.968;2023-03-16T09:48:37;8.10;99.90
6822;DHT22;3449;48.728;8.968;2023-03-16T09:51:06;7.80;99.90
6822;DHT22;3449;48.728;8.968;2023-03-16T09:53:37;7.50;99.90
6822;DHT22;3449;48.728;8.968;2023-03-16T09:56:08;7.60;99.90
6822;DHT22;3449;48.728;8.968;2023-03-16T09:58:35;7.70;99.90
6822;DHT22;3449;48.728;8.968;2023-03-16T10:01:11;8.00;99.90
6822;DHT22;3449;48.728;8.968;2023-03-16T10:03:53;8.00;99.90
6822;DHT22;3449;48.728;8.968;2023-03-16T10:06:25;8.40;99.90
6822;DHT22;3449;48.728;8.968;2023-03-16T10:09:01;8.50;99.90
6822;DHT22;3449;48.728;8.968;2023-03-16T10:11:31;8.40;99.90
6822;DHT22;3449;48.728;8.968;2023-03-16T10:14:04;8.60;99.90
6822;DHT22;3449;48.728;8.968;2023-03-16T10:16:38;9.00;99.90
6822;DHT22;3449;48.728;8.968;2023-03-16T10:19:10;9.20;99.90
6822;DHT22;3449;48.728;8.968;2023-03-16T10:21:40;9.30;99.90
6822;DHT22;3449;48.728;8.968;2023-03-16T10:24:20;9.40;99.90
6822;DHT22;3449;48.728;8.968;2023-03-16T10:26:54;9.30;99.90
6822;DHT22;3449;48.728;8.968;2023-03-16T10:29:25;9.50;99.90
6822;DHT22;3449;48.728;8.968;2023-03-16T10:31:55;9.70;99.90
6822;DHT22;3449;48.728;8.968;2023-03-16T10:34:25;10.10;99.90
6822;DHT22;3449;48.728;8.968;2023-03-16T10:36:53;10.20;99.90
6822;DHT22;3449;48.728;8.968;2023-03-16T10:39:22;10.40;99.90
6822;DHT22;3449;48.728;8.968;2023-03-16T10:41:54;10.70;99.90
6822;DHT22;3449;48.728;8.968;2023-03-16T10:44:24;10.80;99.90
6822;DHT22;3449;48.728;8.968;2023-03-16T10:46:59;10.70;99.90
6822;DHT22;3449;48.728;8.968;2023-03-16T10:49:27;10.50;99.90
6822;DHT22;3449;48.728;8.968;2023-03-16T10:51:56;10.60;99.90
6822;DHT22;3449;48.728;8.968;2023-03-16T10:54:29;10.70;99.90
6822;DHT22;3449;48.728;8.968;2023-03-16T10:56:57;10.60;99.90
6822;DHT22;3449;48.728;8.968;2023-03-16T10:59:29;10.30;99.90
6822;DHT22;3449;48.728;8.968;2023-03-16T11:01:59;10.30;99.90
6822;DHT22;3449;48.728;8.968;2023-03-16T11:04:30;10.40;99.90
6822;DHT22;3449;48.728;8.968;2023-03-16T11:06:58;10.60;99.90
6822;DHT22;3449;48.728;8.968;2023-03-16T11:09:32;11.20;99.90
6822;DHT22;3449;48.728;8.968;2023-03-16T11:12:00;11.30;99.90
6822;DHT22;3449;48.728;8.968;2023-03-16T11:14:37;11.10;99.90
6822;DHT22;3449;48.728;8.968;2023-03-16T11:17:12;11.10;99.90
6822;DHT22;3449;48.728;8.968;2023-03-16T11:19:49;11.10;99.90
6822;DHT22;3449;48.728;8.968;2023-03-16T11:22:19;11.40;99.90
6822;DHT22;3449;48.728;8.968;2023-03-16T11:24:52;11.60;99.90
6822;DHT22;3449;48.728;8.968;2023-03-16T11:27:24;12.00;99.90
6822;DHT22;3449;48.728;8.968;2023-03-16T11:30:05;11.80;99.90
6822;DHT22;3449;48.728;8.968;2023-03-16T11:32:36;12.00;99.90
6822;DHT22;3449;48.728;8.968;2023-03-16T11:35:11;12.10;99.90
6822;DHT22;3449;48.728;8.968;2023-03-16T11:37:50;12.00;99.90
6822;DHT22;3449;48.728;8.968;2023-03-16T11:40:31;12.00;99.90
6822;DHT22;3449;48.728;8.968;2023-03-16T11:43:09;11.80;99.90
6822;DHT22;3449;48.728;8.968;2023-03-16T11:45:43;12.20;99.90
6822;DHT22;3449;48.728;8.968;2023-03-16T11:48:20;12.30;99.90
6822;DHT22;3449;48.728;8.968;2023-03-16T11:50:56;12.50;99.90
6822;DHT22;3449;48.728;8.968;2023-03-16T11:53:34;12.40;99.90
6822;DHT22;3449;48.728;8.968;2023-03-16T11:56:14;12.30;99.90
6822;DHT22;3449;48.728;8.968;2023-03-16T11:58:56;11.90;99.90
6822;DHT22;3449;48.728;8.968;2023-03-16T12:01:34;11.90;99.90
6822;DHT22;3449;48.728;8.968;2023-03-16T12:04:19;11.60;99.90
6822;DHT22;3449;48.728;8.968;2023-03-16T12:06:54;11.50;99.90
6822;DHT22;3449;48.728;8.968;2023-03-16T12:09:49;11.80;99.90
6822;DHT22;3449;48.728;8.968;2023-03-16T12:12:28;12.40;99.90
6822;DHT22;3449;48.728;8.968;2023-03-16T12:15:07;12.90;99.90
6822;DHT22;3449;48.728;8.968;2023-03-16T12:17:36;13.30;99.90
6822;DHT22;3449;48.728;8.968;2023-03-16T12:20:09;12.80;99.90
6822;DHT22;3449;48.728;8.968;2023-03-16T12:22:41;12.00;99.90
6822;DHT22;3449;48.728;8.968;2023-03-16T12:25:15;11.70;99.90
6822;DHT22;3449;48.728;8.968;2023-03-16T12:27:46;11.70;99.90
6822;DHT22;3449;48.728;8.968;2023-03-16T12:30:26;11.80;99.90
6822;DHT22;3449;48.728;8.968;2023-03-16T12:32:59;11.50;99.90
6822;DHT22;3449;48.728;8.968;2023-03-16T12:35:35;11.80;99.90
6822;DHT22;3449;48.728;8.968;2023-03-16T12:41:14;11.60;99.90
6822;DHT22;3449;48.728;8.968;2023-03-16T12:43:52;11.80;99.90
6822;DHT22;3449;48.728;8.968;2023-03-16T12:46:27;12.30;99.90
6822;DHT22;3449;48.728;8.968;2023-03-16T12:48:57;13.10;99.90
6822;DHT22;3449;48.728;8.968;2023-03-16T12:51:33;13.30;99.90
6822;DHT22;3449;48.728;8.968;2023-03-16T12:54:00;13.60;99.90
6822;DHT22;3449;48.728;8.968;2023-03-16T12:56:31;13.40;99.90
6822;DHT22;3449;48.728;8.968;2023-03-16T12:59:01;13.00;99.90
6822;DHT22;3449;48.728;8.968;2023-03-16T13:01:36;13.30;99.90
6822;DHT22;3449;48.728;8.968;2023-03-16T13:04:08;13.60;99.90
6822;DHT22;3449;48.728;8.968;2023-03-16T13:06:41;13.30;99.90
6822;DHT22;3449;48.728;8.968;2023-03-16T13:09:10;13.50;99.90
6822;DHT22;3449;48.728;8.968;2023-03-16T13:11:42;14.00;99.90
6822;DHT22;3449;48.728;8.968;2023-03-16T13:14:29;13.70;99.90
6822;DHT22;3449;48.728;8.968;2023-03-16T13:17:03;14.00;99.90
6822;DHT22;3449;48.728;8.968;2023-03-16T13:19:31;14.60;99.90
6822;DHT22;3449;48.728;8.968;2023-03-16T13:22:16;14.60;99.90
6822;DHT22;3449;48.728;8.968;2023-03-16T13:24:49;14.60;99.90
6822;DHT22;3449;48.728;8.968;2023-03-16T13:27:22;15.00;99.90
6822;DHT22;3449;48.728;8.968;2023-03-16T13:29:54;15.20;99.90
6822;DHT22;3449;48.728;8.968;2023-03-16T13:32:23;15.40;99.90
6822;DHT22;3449;48.728;8.968;2023-03-16T13:34:57;15.10;99.90
6822;DHT22;3449;48.728;8.968;2023-03-16T13:37:26;14.50;99.90
6822;DHT22;3449;48.728;8.968;2023-03-16T13:39:55;14.60;99.90
6822;DHT22;3449;48.728;8.968;2023-03-16T13:42:23;15.20;99.90
6822;DHT22;3449;48.728;8.968;2023-03-16T13:44:56;15.20;99.90
6822;DHT22;3449;48.728;8.968;2023-03-16T13:47:24;15.30;99.90
6822;DHT22;3449;48.728;8.968;2023-03-16T13:49:55;15.30;99.90
6822;DHT22;3449;48.728;8.968;2023-03-16T13:52:25;15.00;99.90
6822;DHT22;3449;48.728;8.968;2023-03-16T13:54:53;15.30;99.90
6822;DHT22;3449;48.728;8.968;2023-03-16T13:57:23;15.60;99.90
6822;DHT22;3449;48.728;8.968;2023-03-16T13:59:51;15.50;99.90
6822;DHT22;3449;48.728;8.968;2023-03-16T14:02:24;15.30;99.90
6822;DHT22;3449;48.728;8.968;2023-03-16T14:04:51;15.20;99.90
6822;DHT22;3449;48.728;8.968;2023-03-16T14:07:20;15.20;99.90
6822;DHT22;3449;48.728;8.968;2023-03-16T14:09:49;15.50;99.90
6822;DHT22;3449;48.728;8.968;2023-03-16T14:12:18;15.60;99.90
6822;DHT22;3449;48.728;8.968;2023-03-16T14:14:46;15.50;99.90
6822;DHT22;3449;48.728;8.968;2023-03-16T14:17:16;15.40;99.40
6822;DHT22;3449;48.728;8.968;2023-03-16T14:19:47;15.80;99.90
6822;DHT22;3449;48.728;8.968;2023-03-16T14:22:17;15.50;99.30
6822;DHT22;3449;48.728;8.968;2023-03-16T14:24:50;15.50;99.90
6822;DHT22;3449;48.728;8.968;2023-03-16T14:27:20;15.30;99.90
6822;DHT22;3449;48.728;8.968;2023-03-16T14:29:55;15.30;99.90
6822;DHT22;3449;48.728;8.968;2023-03-16T14:32:26;15.50;99.90
6822;DHT22;3449;48.728;8.968;2023-03-16T14:35:08;15.90;99.90
6822;DHT22;3449;48.728;8.968;2023-03-16T14:37:37;16.10;99.90
6822;DHT22;3449;48.728;8.968;2023-03-16T14:40:07;15.70;98.90
6822;DHT22;3449;48.728;8.968;2023-03-16T14:42:34;15.20;99.10
6822;DHT22;3449;48.728;8.968;2023-03-16T14:45:03;15.00;99.90
6822;DHT22;3449;48.728;8.968;2023-03-16T14:47:37;14.90;99.90
6822;DHT22;3449;48.728;8.968;2023-03-16T14:50:08;14.80;99.90
6822;DHT22;3449;48.728;8.968;2023-03-16T14:52:38;14.70;99.90
6822;DHT22;3449;48.728;8.968;2023-03-16T14:55:10;14.40;99.90
6822;DHT22;3449;48.728;8.968;2023-03-16T14:57:39;14.60;99.90
6822;DHT22;3449;48.728;8.968;2023-03-16T15:00:07;14.50;99.70
6822;DHT22;3449;48.728;8.968;2023-03-16T15:02:37;14.20;99.70
6822;DHT22;3449;48.728;8.968;2023-03-16T15:05:09;14.00;99.80
6822;DHT22;3449;48.728;8.968;2023-03-16T15:07:38;13.80;99.20
6822;DHT22;3449;48.728;8.968;2023-03-16T15:10:20;13.70;99.90
6822;DHT22;3449;48.728;8.968;2023-03-16T15:12:48;13.70;99.80
6822;DHT22;3449;48.728;8.968;2023-03-16T15:15:20;13.50;99.90
6822;DHT22;3449;48.728;8.968;2023-03-16T15:17:49;13.50;99.90
6822;DHT22;3449;48.728;8.968;2023-03-16T15:20:19;13.50;99.90
6822;DHT22;3449;48.728;8.968;2023-03-16T15:22:49;13.70;99.90
6822;DHT22;3449;48.728;8.968;2023-03-16T15:25:20;13.90;99.90
6822;DHT22;3449;48.728;8.968;2023-03-16T15:27:49;13.80;99.90
6822;DHT22;3449;48.728;8.968;2023-03-16T15:30:18;13.50;99.20
6822;DHT22;3449;48.728;8.968;2023-03-16T15:32:46;13.40;99.90
6822;DHT22;3449;48.728;8.968;2023-03-16T15:35:13;13.00;99.40
6822;DHT22;3449;48.728;8.968;2023-03-16T15:37:41;12.80;99.90
6822;DHT22;3449;48.728;8.968;2023-03-16T15:40:20;12.70;99.90
6822;DHT22;3449;48.728;8.968;2023-03-16T15:42:48;12.80;99.90
6822;DHT22;3449;48.728;8.968;2023-03-16T15:45:17;12.80;99.90
6822;DHT22;3449;48.728;8.968;2023-03-16T15:47:46;12.70;99.90
6822;DHT22;3449;48.728;8.968;2023-03-16T15:50:14;12.40;99.90
6822;DHT22;3449;48.728;8.968;2023-03-16T15:52:44;12.30;99.90
6822;DHT22;3449;48.728;8.968;2023-03-16T15:55:18;12.30;99.90
6822;DHT22;3449;48.728;8.968;2023-03-16T15:57:47;12.30;99.90
6822;DHT22;3449;48.728;8.968;2023-03-16T16:00:26;12.30;99.90
6822;DHT22;3449;48.728;8.968;2023-03-16T16:02:55;12.20;99.90
6822;DHT22;3449;48.728;8.968;2023-03-16T16:05:22;12.20;99.90
6822;DHT22;3449;48.728;8.968;2023-03-16T16:07:50;12.10;99.90
6822;DHT22;3449;48.728;8.968;2023-03-16T16:10:18;12.00;99.90
6822;DHT22;3449;48.728;8.968;2023-03-16T16:12:46;11.90;99.90
6822;DHT22;3449;48.728;8.968;2023-03-16T16:15:22;11.80;99.90
6822;DHT22;3449;48.728;8.968;2023-03-16T16:17:50;11.70;99.90
6822;DHT22;3449;48.728;8.968;2023-03-16T16:20:20;11.70;99.90
6822;DHT22;3449;48.728;8.968;2023-03-16T16:22:47;11.70;99.90